Terminal Aerodrome Forecast
Issued by NWS

Home | Current Version | Previous Version | Text Only | Print | Product List | Glossary On
Versions: 1 2 3 4 5 6 7 8 9 10 11 12 13 14 15 16 17 18 19 20 21
000
FTUS46 KMTR 231400 AAA
TAFOAK
TAF AMD
KOAK 231439Z 2315/2418 30004KT P6SM BKN018 OVC035
     FM231800 28006KT P6SM FEW025 SCT040
     FM232100 28016KT P6SM SCT050
     FM240400 26007KT P6SM SKC=

USA.gov is the U.S. government's official web portal to all federal, state and local government web resources and services.